District Heights, Maryland
Current Conditions -  °F | °C
As of 1:58 PM on Thursday 30 Oct 2014 (Local Time) from KADW Reporting Station
Scattered Clouds Scattered Clouds  
Wind Chill: 57°   Ceiling: Unl
Heat Index: 57°   Visibility: 10mi
Dew Point: 37°   Wind: 6mph
Humidity: 48%   Direction: NA
Pressure: 30.02"   Gusts: NA
Location:  38.86°N, 76.88°W
Report Text: KADW 301758Z AUTO VRB05KT 10SM FEW049 SCT055 14/03 A3002 RMK AO2 SLP173 T01390029 10151 20087 57015 $
Loading
Personal Weather Stations






























Interactive Weather Map
Tropical Storm Tracking
New forecast layout! Learn more

10-Day Weather Forecast

Advertisements
Track Severe Weather on mobile